Time;durP1;ratioP1;P1;durP2;ratioP2;P2;SDS_P1;SDS_P2;PMS_P1;PMS_P2;Temp;Humidity;BMP_temperature;BMP_pressure;BME280_temperature;BME280_humidity;BME280_pressure;Samples;Min_cycle;Max_cycle;Signal;HPM_P1;HPM_P2
2022/06/15 00:01:45;;;;;;;7.50;5.83;;;12.80;99.90;;;12.56;68.40;101568.84;5009971;28;20423;-75
2022/06/15 00:04:17;;;;;;;12.23;6.33;;;12.70;99.90;;;12.45;68.38;101563.13;5010041;28;20425;-75
2022/06/15 00:06:47;;;;;;;14.27;6.33;;;12.60;99.90;;;12.32;68.81;101558.44;5008715;28;20440;-75
2022/06/15 00:09:16;;;;;;;8.93;6.50;;;12.50;99.90;;;12.29;69.18;101556.13;5008833;28;20425;-74
2022/06/15 00:11:46;;;;;;;9.13;5.53;;;12.50;99.90;;;12.43;69.35;101568.75;5010077;28;20453;-75
2022/06/15 00:14:20;;;;;;;7.27;5.33;;;12.50;99.90;;;12.55;69.07;101556.31;5010251;28;20460;-76
2022/06/15 00:16:49;;;;;;;8.90;5.37;;;12.60;99.90;;;12.55;69.06;101561.72;5011078;28;20429;-77
2022/06/15 00:19:21;;;;;;;8.60;5.80;;;12.60;99.90;;;12.59;69.11;101554.00;5011306;28;20504;-76
2022/06/15 00:21:50;;;;;;;6.90;5.80;;;12.60;99.90;;;12.47;69.07;101558.34;5012046;28;20875;-75
2022/06/15 00:24:19;;;;;;;8.80;5.00;;;12.60;99.90;;;12.28;69.68;101554.44;5012662;28;20429;-75
2022/06/15 00:26:48;;;;;;;7.27;5.17;;;12.40;99.90;;;12.20;69.96;101547.28;5017090;28;20816;-75
2022/06/15 00:29:17;;;;;;;6.73;6.03;;;12.40;99.90;;;12.28;70.11;101551.75;5012534;28;20403;-75
2022/06/15 00:31:46;;;;;;;12.63;5.80;;;12.40;99.90;;;12.29;69.93;101545.28;5037369;22;20537;-71
2022/06/15 00:34:15;;;;;;;7.60;6.00;;;12.40;99.90;;;12.56;69.40;101547.13;5033687;28;20492;-73
2022/06/15 00:36:45;;;;;;;9.60;5.80;;;12.50;99.90;;;12.35;69.60;101549.88;5017368;28;20508;-70
2022/06/15 00:39:14;;;;;;;9.00;6.67;;;12.50;99.90;;;12.43;69.72;101549.75;5017544;28;20435;-70
2022/06/15 00:41:44;;;;;;;9.10;5.50;;;12.50;99.90;;;12.43;69.46;101549.75;5017629;28;20502;-70
2022/06/15 00:44:33;;;;;;;8.43;6.83;;;12.50;99.90;;;12.31;70.13;101551.31;5033673;23;20486;-70
2022/06/15 00:47:11;;;;;;;9.60;5.73;;;12.40;99.90;;;12.13;70.12;101549.13;4976143;28;20935;-70
2022/06/15 00:49:48;;;;;;;10.60;7.60;;;12.30;99.90;;;11.98;70.49;101547.50;4976862;28;20919;-70
2022/06/15 00:52:32;;;;;;;9.73;6.57;;;12.20;99.90;;;11.92;71.15;101548.28;4959035;28;20430;-70
2022/06/15 00:55:08;;;;;;;6.93;5.37;;;12.10;99.90;;;11.96;70.93;101555.00;4976174;28;20895;-71
2022/06/15 00:57:41;;;;;;;6.07;5.47;;;12.10;99.90;;;11.91;71.47;101552.06;4958934;28;20516;-71
2022/06/15 01:00:12;;;;;;;11.00;6.17;;;12.10;99.90;;;12.02;71.44;101552.34;4976414;28;20431;-70
2022/06/15 01:02:43;;;;;;;8.40;6.07;;;12.10;99.90;;;12.08;71.54;101550.72;4976273;28;20841;-71
2022/06/15 01:05:17;;;;;;;7.83;6.03;;;12.20;99.90;;;12.16;71.52;101556.84;4976052;28;20447;-70
2022/06/15 01:08:16;;;;;;;9.30;6.37;;;12.20;99.90;;;12.30;70.59;101554.22;4976416;28;20510;-71
2022/06/15 01:11:13;;;;;;;11.27;6.00;;;12.30;99.90;;;12.16;70.63;101556.84;4976659;28;20831;-71
2022/06/15 01:14:41;;;;;;;6.10;5.10;;;12.30;99.90;;;12.24;71.01;101557.75;4958496;28;20462;-70
2022/06/15 01:17:33;;;;;;;8.90;6.60;;;12.30;99.90;;;12.12;71.23;101554.72;4959312;28;20449;-71
2022/06/15 01:20:33;;;;;;;6.83;5.87;;;12.30;99.90;;;11.91;71.44;101550.16;4959424;28;20423;-71
2022/06/15 01:23:48;;;;;;;6.73;5.33;;;12.10;99.90;;;11.75;71.91;101547.72;4960178;28;20821;-71
2022/06/15 01:26:51;;;;;;;6.47;5.57;;;12.00;99.90;;;11.89;72.47;101548.69;4976141;28;20801;-71
2022/06/15 01:29:48;;;;;;;8.10;6.90;;;11.90;99.90;;;11.85;72.14;101553.66;4976075;28;20947;-70
2022/06/15 01:32:28;;;;;;;6.87;5.90;;;12.00;99.90;;;11.77;72.65;101549.19;4958342;28;20419;-71
2022/06/15 01:35:12;;;;;;;7.40;5.47;;;11.90;99.90;;;11.70;73.00;101553.72;4975598;28;20463;-70
2022/06/15 01:38:01;;;;;;;6.70;5.50;;;11.90;99.90;;;11.95;72.34;101547.91;4975992;28;20434;-70
2022/06/15 01:40:39;;;;;;;9.93;6.37;;;12.00;99.90;;;11.99;72.47;101549.19;4975293;28;20892;-70
2022/06/15 01:43:15;;;;;;;6.13;5.63;;;12.10;99.90;;;12.08;72.17;101550.72;4975959;28;20979;-71
2022/06/15 01:45:48;;;;;;;9.60;6.50;;;12.10;99.90;;;11.86;72.91;101549.09;4958603;28;20878;-70
2022/06/15 01:48:21;;;;;;;13.93;5.97;;;12.00;99.90;;;11.83;72.84;101549.47;4958776;28;20950;-70
2022/06/15 01:50:54;;;;;;;8.43;5.73;;;11.90;99.90;;;11.93;72.57;101542.69;4990646;28;20445;-71
2022/06/15 01:53:32;;;;;;;7.70;5.80;;;12.00;99.90;;;11.76;72.92;101539.38;4990329;28;20525;-70
2022/06/15 01:56:11;;;;;;;6.23;5.43;;;11.90;99.90;;;11.75;72.69;101535.03;4990671;28;20470;-69
2022/06/15 01:58:46;;;;;;;6.47;5.33;;;11.90;99.90;;;11.70;73.02;101533.88;4958594;28;20864;-70
2022/06/15 02:01:25;;;;;;;8.37;5.50;;;11.80;99.90;;;11.62;73.37;101542.97;4991151;28;20454;-70
2022/06/15 02:04:06;;;;;;;9.13;6.00;;;11.80;99.90;;;11.62;73.32;101537.53;4975909;28;20450;-71
2022/06/15 02:06:49;;;;;;;5.50;4.97;;;11.80;99.90;;;11.60;73.19;101534.22;4993517;28;20449;-71
2022/06/15 02:09:28;;;;;;;12.00;7.57;;;11.70;99.90;;;11.52;73.11;101539.72;4994421;28;20953;-71
2022/06/15 02:12:04;;;;;;;10.20;7.40;;;11.70;99.90;;;11.46;73.35;101548.66;4993759;28;20525;-70
2022/06/15 02:14:43;;;;;;;8.80;6.70;;;11.60;99.90;;;11.48;73.29;101543.88;4994573;28;20987;-71
2022/06/15 02:17:19;;;;;;;10.03;7.57;;;11.60;99.90;;;11.46;73.25;101540.53;4994842;28;20466;-71
2022/06/15 02:19:56;;;;;;;12.57;7.27;;;11.60;99.90;;;11.71;73.07;101549.13;4995809;28;20435;-70
2022/06/15 02:22:34;;;;;;;10.23;7.10;;;11.70;99.90;;;11.66;73.16;101549.72;4994956;28;20795;-70
2022/06/15 02:25:09;;;;;;;11.97;7.47;;;11.70;99.90;;;11.50;73.41;101555.38;4995011;28;20454;-70
2022/06/15 02:27:42;;;;;;;10.77;7.30;;;11.60;99.90;;;11.55;73.18;101539.38;4961763;28;20493;-70
2022/06/15 02:30:18;;;;;;;12.70;8.67;;;11.60;99.90;;;11.50;73.39;101538.25;4961895;28;20462;-70
2022/06/15 02:32:53;;;;;;;8.77;6.57;;;11.60;99.90;;;11.50;73.38;101536.41;4961772;28;20534;-70
2022/06/15 02:35:24;;;;;;;8.53;7.47;;;11.60;99.90;;;11.53;73.34;101533.28;4961749;28;20223;-70
2022/06/15 02:37:54;;;;;;;9.37;6.03;;;11.60;99.90;;;11.51;73.44;101535.38;4960134;28;20887;-70
2022/06/15 02:40:27;;;;;;;8.07;6.00;;;11.60;99.90;;;11.66;73.03;101530.72;4957437;28;20450;-70
2022/06/15 02:42:56;;;;;;;11.13;6.83;;;11.60;99.90;;;11.49;73.50;101537.41;4957038;28;20534;-70
2022/06/15 02:45:30;;;;;;;9.00;6.20;;;11.60;99.90;;;11.40;73.91;101537.72;4974083;28;20505;-70
2022/06/15 02:48:03;;;;;;;9.37;6.17;;;11.50;99.90;;;11.34;73.96;101531.22;4957172;28;20850;-70
2022/06/15 02:50:41;;;;;;;7.20;6.30;;;11.50;99.90;;;11.37;73.74;101538.97;4956955;28;20481;-70
2022/06/15 02:53:17;;;;;;;7.77;5.50;;;11.40;99.90;;;11.40;73.72;101533.16;4957001;28;21035;-70
2022/06/15 02:55:49;;;;;;;9.83;6.37;;;11.40;99.90;;;11.47;73.14;101533.25;4956773;28;20501;-70
2022/06/15 02:58:27;;;;;;;7.80;5.87;;;11.50;99.90;;;11.35;73.67;101532.91;4974087;28;20518;-70
2022/06/15 03:01:00;;;;;;;9.30;5.37;;;11.40;99.90;;;11.27;74.06;101535.72;4956710;28;20493;-70
2022/06/15 03:03:33;;;;;;;7.73;4.97;;;11.30;99.90;;;11.35;73.81;101541.03;4956897;28;20446;-71
2022/06/15 03:06:30;;;;;;;9.77;5.25;;;11.40;99.90;;;11.40;73.59;101544.00;4972230;28;20865;-70
2022/06/15 03:09:08;;;;;;;11.90;4.67;;;11.40;99.90;;;11.29;73.61;101542.63;4957102;28;20199;-69
2022/06/15 03:11:49;;;;;;;10.23;5.30;;;11.30;99.90;;;11.27;74.14;101541.16;4956987;28;20466;-70
2022/06/15 03:14:27;;;;;;;12.17;6.50;;;11.30;99.90;;;11.35;73.74;101546.44;4956751;28;20465;-69
2022/06/15 03:16:58;;;;;;;7.03;4.97;;;11.30;99.90;;;11.42;73.72;101547.38;4956687;28;20990;-70
2022/06/15 03:19:36;;;;;;;5.83;5.27;;;11.30;99.90;;;11.40;73.69;101544.00;4956519;28;20747;-70
2022/06/15 03:22:07;;;;;;;7.17;5.63;;;11.40;99.90;;;11.45;73.40;101546.97;4956839;28;20493;-70
2022/06/15 03:24:39;;;;;;;6.80;5.40;;;11.40;99.90;;;11.59;73.01;101545.22;4956375;28;21006;-70
2022/06/15 03:27:11;;;;;;;5.77;5.13;;;11.50;99.90;;;11.68;72.80;101544.91;4956599;28;20446;-70
2022/06/15 03:29:42;;;;;;;8.30;5.57;;;11.50;99.90;;;11.81;72.10;101552.38;4956482;28;20470;-70
2022/06/15 03:32:15;;;;;;;8.60;5.43;;;11.60;99.90;;;11.91;71.79;101552.06;4956602;28;21043;-70
2022/06/15 03:35:07;;;;;;;13.30;6.07;;;11.60;99.90;;;12.19;71.09;101547.50;4973320;28;20463;-70
2022/06/15 03:37:39;;;;;;;8.57;5.63;;;11.80;99.90;;;12.73;69.58;101563.09;4956617;28;20443;-70
2022/06/15 03:40:25;;;;;;;8.80;5.30;;;12.00;99.90;;;13.72;66.36;101550.75;4956475;28;20566;-70
2022/06/15 03:42:55;;;;;;;7.63;5.30;;;12.50;99.90;;;14.92;62.54;101554.00;4956374;28;20494;-70
2022/06/15 03:45:27;;;;;;;10.53;5.30;;;13.10;99.90;;;16.33;58.09;101549.19;4973406;28;20470;-70
2022/06/15 03:47:57;;;;;;;6.17;5.17;;;13.90;98.50;;;16.26;57.12;101553.88;4956005;28;20561;-70
2022/06/15 03:50:29;;;;;;;11.87;5.80;;;14.40;88.70;;;15.33;59.56;101553.66;4956134;28;20542;-70
2022/06/15 03:53:04;;;;;;;9.87;5.60;;;14.40;80.50;;;15.60;59.55;101547.00;4955833;28;20824;-70
2022/06/15 03:55:41;;;;;;;8.37;5.33;;;14.50;82.20;;;17.22;55.12;101541.28;4955968;28;21070;-71
2022/06/15 03:58:20;;;;;;;9.83;7.60;;;14.90;72.40;;;18.55;51.51;101546.38;4955987;28;20450;-71
2022/06/15 04:00:54;;;;;;;8.37;5.43;;;15.40;57.10;;;19.57;49.00;101546.63;4955931;28;20453;-67
2022/06/15 04:03:26;;;;;;;6.60;5.03;;;16.10;46.30;;;20.01;47.54;101534.81;4952523;28;20459;-71
2022/06/15 04:06:02;;;;;;;9.53;6.93;;;16.60;37.80;;;20.33;46.80;101530.41;4956629;29;20451;-71
2022/06/15 04:08:50;;;;;;;7.30;6.00;;;16.90;32.50;;;20.99;45.40;101534.09;4956983;28;20460;-71
2022/06/15 04:14:22;;;;;;;7.40;5.90;;;17.60;25.40;;;21.70;43.70;101532.16;4956618;28;20445;-71
2022/06/15 04:17:00;;;;;;;7.50;6.80;;;18.00;22.70;;;21.54;43.58;101535.88;4957393;29;20559;-71
2022/06/15 04:22:38;;;;;;;14.30;7.03;;;18.50;18.00;;;21.90;43.27;101529.63;4958182;29;20523;-71
2022/06/15 04:25:10;;;;;;;9.33;6.03;;;18.90;16.50;;;22.05;42.70;101534.47;4963168;28;20471;-71
2022/06/15 04:27:39;;;;;;;12.33;6.50;;;18.80;16.30;;;22.10;42.60;101540.00;4961738;28;20789;-71
2022/06/15 04:30:13;;;;;;;8.57;7.60;;;19.00;14.80;;;21.62;43.83;101546.44;4944732;29;20451;-70
2022/06/15 04:32:49;;;;;;;8.93;6.40;;;18.70;15.70;;;22.29;42.78;101545.94;4961252;29;20863;-71
2022/06/15 04:35:26;;;;;;;11.50;6.60;;;18.90;14.80;;;22.74;41.71;101540.78;4960863;29;20566;-71
2022/06/15 04:37:56;;;;;;;11.03;7.60;;;19.30;13.70;;;23.45;40.43;101546.63;4962930;29;20415;-71
2022/06/15 04:40:31;;;;;;;8.80;6.37;;;19.60;12.50;;;23.93;39.54;101539.78;4957306;29;20856;-70
2022/06/15 04:43:00;;;;;;;6.80;5.90;;;19.80;11.50;;;24.29;38.92;101545.34;4958406;28;20871;-70
2022/06/15 04:45:29;;;;;;;8.70;7.33;;;20.20;10.80;;;23.69;39.81;101544.19;4961107;28;20485;-71
2022/06/15 04:48:11;;;;;;;8.70;7.80;;;20.20;9.50;;;23.81;39.75;101548.34;4960045;28;20421;-71
2022/06/15 04:50:43;;;;;;;8.17;7.40;;;20.20;9.10;;;24.35;38.76;101539.53;4960060;28;20457;-70
2022/06/15 04:53:13;;;;;;;8.03;6.50;;;20.40;8.60;;;24.43;38.31;101540.91;4977187;28;20419;-70
2022/06/15 04:55:43;;;;;;;9.17;7.30;;;20.40;7.60;;;24.08;38.93;101542.56;4976452;28;20462;-71
2022/06/15 04:58:15;;;;;;;7.23;6.53;;;20.30;7.60;;;24.49;38.15;101537.88;4976630;28;20402;-69
2022/06/15 05:00:46;;;;;;;7.50;5.70;;;20.70;6.60;;;24.18;38.37;101545.34;4959146;28;20452;-70
2022/06/15 05:03:20;;;;;;;9.20;5.97;;;20.70;5.80;;;23.47;39.58;101535.31;4958689;28;20421;-70
2022/06/15 05:05:55;;;;;;;9.77;6.20;;;20.60;5.70;;;23.70;39.17;101532.88;4953195;28;20454;-70
2022/06/15 05:08:27;;;;;;;7.23;5.17;;;20.40;5.80;;;22.56;40.75;101530.13;4959124;28;20475;-70
2022/06/15 05:11:00;;;;;;;6.83;5.37;;;20.50;4.70;;;21.64;42.61;101527.69;4959441;28;20516;-70
2022/06/15 05:13:33;;;;;;;7.73;4.80;;;19.80;5.90;;;21.20;43.61;101529.72;4958678;28;20425;-70
2022/06/15 05:16:02;;;;;;;5.70;4.97;;;19.60;6.30;;;22.61;41.24;101532.91;4958840;28;20520;-71
2022/06/15 05:18:33;;;;;;;6.70;4.90;;;19.60;6.90;;;23.04;40.31;101533.75;4958789;28;20413;-70
2022/06/15 05:21:07;;;;;;;6.90;4.73;;;19.90;6.00;;;23.20;39.28;101539.03;4958782;28;21005;-70
2022/06/15 05:23:36;;;;;;;6.63;4.13;;;20.20;4.90;;;22.35;40.80;101536.63;4958273;28;20449;-70
2022/06/15 05:26:16;;;;;;;6.87;5.40;;;19.90;5.30;;;21.15;43.04;101533.25;4956443;28;20405;-69
2022/06/15 05:28:46;;;;;;;7.77;4.87;;;19.80;5.30;;;20.44;44.59;101536.91;4965929;28;20458;-69
2022/06/15 05:31:21;;;;;;;13.53;4.63;;;19.30;6.30;;;19.90;45.71;101546.69;4953438;28;20537;-69
2022/06/15 05:33:57;;;;;;;7.30;5.50;;;18.80;8.00;;;19.28;47.54;101543.03;4955193;28;20489;-69
2022/06/15 05:36:31;;;;;;;8.57;4.90;;;18.20;9.40;;;19.08;48.15;101543.44;4967713;28;20462;-70
2022/06/15 05:39:04;;;;;;;7.87;5.10;;;18.00;10.60;;;18.91;48.88;101550.78;4955079;28;20541;-69
2022/06/15 05:41:37;;;;;;;8.67;5.27;;;17.90;11.60;;;18.96;48.65;101548.97;4957442;28;20585;-69
2022/06/15 05:44:09;;;;;;;8.60;5.50;;;17.90;12.20;;;18.96;48.75;101546.22;4959856;28;20454;-71
2022/06/15 05:46:41;;;;;;;7.20;6.40;;;17.90;12.00;;;18.84;49.20;101552.78;4974416;28;20532;-70
2022/06/15 05:49:34;;;;;;;6.97;5.53;;;17.90;12.70;;;18.79;49.62;101549.94;4975002;28;20449;-70
2022/06/15 05:52:06;;;;;;;9.63;6.33;;;17.80;13.60;;;18.77;50.00;101547.47;4972185;28;20907;-69
2022/06/15 05:54:38;;;;;;;7.70;5.30;;;17.90;13.90;;;19.11;49.45;101548.47;4974052;28;20481;-69
2022/06/15 05:57:18;;;;;;;8.50;6.53;;;18.10;14.10;;;19.19;48.78;101550.81;4971935;28;20474;-69
2022/06/15 05:59:49;;;;;;;6.80;5.10;;;18.20;13.30;;;19.17;48.09;101552.97;4971682;28;20930;-69
2022/06/15 06:02:21;;;;;;;4.80;3.97;;;18.40;12.00;;;19.10;48.01;101547.63;4967314;28;20950;-75
2022/06/15 06:04:51;;;;;;;4.20;3.00;;;18.30;11.40;;;19.16;47.49;101554.06;4971391;28;20660;-75
2022/06/15 06:07:23;;;;;;;5.20;2.97;;;18.40;10.70;;;19.16;47.75;101550.47;4970024;28;20539;-75
2022/06/15 06:09:52;;;;;;;5.40;3.40;;;18.40;10.90;;;19.14;46.66;101550.72;4970919;28;20436;-75
2022/06/15 06:12:22;;;;;;;4.50;3.10;;;18.40;9.10;;;19.16;45.82;101551.31;4970561;28;20424;-77
2022/06/15 06:14:53;;;;;;;3.73;2.63;;;18.60;8.20;;;19.31;45.75;101557.13;4972557;28;21000;-75
2022/06/15 06:17:24;;;;;;;3.57;2.30;;;18.70;7.90;;;19.56;44.26;101553.22;4970235;28;20536;-75
2022/06/15 06:19:54;;;;;;;4.07;2.43;;;18.80;5.90;;;19.47;43.38;101559.09;4970627;28;21011;-75
2022/06/15 06:22:23;;;;;;;5.57;1.63;;;18.90;3.90;;;19.65;43.45;101560.00;4971573;28;20405;-75
2022/06/15 06:24:52;;;;;;;2.03;1.53;;;19.00;4.10;;;19.84;43.18;101558.69;4971699;28;20462;-75
2022/06/15 06:27:22;;;;;;;3.30;1.90;;;19.10;4.30;;;19.99;42.31;101545.22;4969323;28;20437;-74
2022/06/15 06:29:52;;;;;;;2.47;1.67;;;19.30;2.60;;;19.98;42.70;101553.72;4968200;28;20792;-73
2022/06/15 06:32:21;;;;;;;2.70;1.53;;;19.30;2.60;;;20.16;41.39;101551.56;4970554;28;20458;-74
2022/06/15 06:34:51;;;;;;;2.80;1.70;;;19.50;1.40;;;20.26;41.88;101559.97;4969569;28;20836;-75
2022/06/15 06:37:20;;;;;;;3.57;1.53;;;19.60;1.70;;;20.66;40.74;101547.97;4970540;28;21057;-74
2022/06/15 06:39:56;;;;;;;3.77;1.80;;;19.80;1.00;;;20.99;40.00;101550.63;4971836;28;20570;-75
2022/06/15 06:42:26;;;;;;;4.80;1.97;;;20.10;1.00;;;21.15;40.57;101552.50;4974791;28;20434;-74
2022/06/15 06:44:57;;;;;;;2.70;1.47;;;20.40;1.00;;;21.07;39.72;101552.06;5012928;23;20462;-72
2022/06/15 06:47:26;;;;;;;5.93;1.60;;;20.40;1.00;;;21.05;40.65;101552.34;5037518;28;20411;-72
2022/06/15 06:49:56;;;;;;;5.63;1.97;;;20.60;1.00;;;20.99;39.93;101552.53;5036159;28;20422;-71
2022/06/15 06:52:25;;;;;;;5.40;1.90;;;20.60;1.00;;;21.16;39.54;101545.91;4998004;28;20556;-72
2022/06/15 06:54:54;;;;;;;2.73;1.90;;;20.50;1.00;;;21.32;39.38;101548.84;5009341;28;20438;-72
2022/06/15 06:57:23;;;;;;;3.57;1.67;;;20.70;1.00;;;21.49;39.20;101546.84;5010674;28;20853;-71
2022/06/15 06:59:53;;;;;;;4.03;1.63;;;20.80;1.00;;;21.63;39.18;101553.59;5006739;28;20514;-72
2022/06/15 07:02:22;;;;;;;1.50;1.10;;;20.80;1.00;;;21.85;38.62;101554.38;4990567;28;20479;-71
2022/06/15 07:04:51;;;;;;;2.23;1.30;;;20.90;1.00;;;21.86;38.10;101556.03;5009659;28;20511;-73
2022/06/15 07:07:21;;;;;;;8.03;1.83;;;21.10;1.00;;;21.39;38.26;101549.47;5007246;28;20437;-73
2022/06/15 07:09:50;;;;;;;5.23;1.63;;;20.80;1.00;;;21.44;38.93;101549.53;4996906;28;20522;-72
2022/06/15 07:12:19;;;;;;;1.80;1.00;;;20.80;1.00;;;21.38;38.61;101548.66;4992452;28;20846;-71
2022/06/15 07:14:51;;;;;;;5.67;1.40;;;20.70;1.00;;;21.35;38.50;101549.16;5009291;28;20455;-74
2022/06/15 07:17:21;;;;;;;1.70;1.10;;;20.70;1.00;;;21.15;38.35;101558.03;5009732;28;20461;-73
2022/06/15 07:19:51;;;;;;;2.07;1.37;;;20.70;1.00;;;20.80;39.00;101549.25;5004146;28;20507;-71
2022/06/15 07:22:20;;;;;;;1.67;1.10;;;20.50;1.00;;;20.51;40.11;101553.22;4991560;28;20504;-74
2022/06/15 07:24:49;;;;;;;3.10;1.13;;;20.20;1.00;;;20.27;41.00;101553.38;4985452;28;20425;-72
2022/06/15 07:27:19;;;;;;;1.60;1.20;;;19.90;1.00;;;20.11;40.72;101551.47;4997912;28;20443;-73
2022/06/15 07:29:48;;;;;;;3.20;1.37;;;19.90;1.00;;;19.97;40.89;101550.13;4989828;28;20449;-73
2022/06/15 07:32:20;;;;;;;1.50;1.20;;;19.80;1.00;;;20.19;40.19;101552.94;5005427;28;20440;-72
2022/06/15 07:34:49;;;;;;;3.37;1.33;;;19.90;1.00;;;20.26;40.19;101548.97;4992256;28;20494;-73
2022/06/15 07:37:18;;;;;;;2.73;1.70;;;20.00;1.00;;;20.41;40.12;101550.31;5004106;28;20420;-72
2022/06/15 07:40:09;;;;;;;2.00;1.27;;;20.10;1.00;;;20.47;40.00;101546.56;5004655;28;20509;-74
2022/06/15 07:42:38;;;;;;;4.63;1.00;;;20.10;1.00;;;20.56;39.00;101542.31;5004729;28;20854;-72
2022/06/15 07:45:10;;;;;;;3.27;1.20;;;20.20;1.00;;;20.71;39.30;101548.03;4985691;28;20465;-73
2022/06/15 07:50:27;;;;;;;2.20;1.13;;;20.60;1.00;;;20.55;39.53;101546.97;4989606;28;20438;-73
2022/06/15 07:53:03;;;;;;;1.63;1.20;;;20.50;1.00;;;20.78;39.31;101548.66;4990149;28;20462;-72
2022/06/15 07:55:35;;;;;;;2.10;1.30;;;20.50;1.00;;;21.14;39.23;101553.59;4989692;28;20420;-71
2022/06/15 07:58:06;;;;;;;2.70;1.00;;;20.70;1.00;;;21.34;39.15;101552.19;4987425;28;20466;-72
2022/06/15 08:00:37;;;;;;;3.43;1.43;;;20.90;1.00;;;21.55;38.56;101549.38;4988257;28;20416;-73
2022/06/15 08:03:09;;;;;;;2.10;1.40;;;21.10;1.00;;;21.27;38.22;101551.53;4985074;28;20891;-70
2022/06/15 08:05:44;;;;;;;2.73;1.90;;;21.30;1.00;;;20.86;39.34;101551.00;4990544;28;20503;-73
2022/06/15 08:08:19;;;;;;;4.17;1.37;;;21.00;1.00;;;20.84;40.16;101547.66;4990391;28;20404;-73
2022/06/15 08:10:49;;;;;;;2.70;1.70;;;20.80;1.00;;;20.85;39.27;101549.31;5001173;28;20450;-73
2022/06/15 08:13:20;;;;;;;3.53;1.60;;;20.80;1.00;;;20.72;40.20;101555.19;4990511;28;20508;-72
2022/06/15 08:15:52;;;;;;;2.10;1.40;;;20.60;1.00;;;20.77;39.96;101547.00;4985477;28;20446;-72
2022/06/15 08:18:29;;;;;;;2.53;1.60;;;20.60;1.00;;;20.98;39.62;101548.94;4988249;28;20473;-72
2022/06/15 08:21:02;;;;;;;2.70;1.30;;;20.70;1.00;;;20.87;39.44;101541.63;4990705;28;20412;-74
2022/06/15 08:23:36;;;;;;;2.47;1.53;;;20.80;1.00;;;20.75;39.47;101549.19;4992485;28;20553;-72
2022/06/15 08:26:15;;;;;;;1.93;1.50;;;20.70;1.00;;;20.78;40.42;101545.91;4992276;28;20978;-72
2022/06/15 08:28:51;;;;;;;3.10;1.70;;;20.60;1.00;;;20.75;40.08;101546.44;4995579;28;20437;-73
2022/06/15 08:31:21;;;;;;;5.20;1.57;;;20.60;1.00;;;21.18;39.73;101542.91;4995171;28;20511;-74
2022/06/15 08:33:52;;;;;;;2.93;1.93;;;20.90;1.00;;;21.38;39.22;101534.88;4997106;28;20771;-73
2022/06/15 08:36:22;;;;;;;1.80;1.40;;;21.00;1.00;;;21.46;38.97;101539.91;4996940;28;20412;-72
2022/06/15 08:38:51;;;;;;;2.27;1.73;;;21.00;1.00;;;21.40;38.81;101523.59;4990190;28;20491;-72
2022/06/15 08:41:34;;;;;;;4.13;1.73;;;21.00;1.00;;;21.39;39.33;101525.53;4985556;28;20444;-73
2022/06/15 08:44:23;;;;;;;2.97;1.90;;;21.10;1.00;;;21.26;38.96;101517.66;4985219;28;20442;-71
2022/06/15 08:47:03;;;;;;;4.73;1.90;;;20.90;1.00;;;21.73;38.86;101512.38;4984751;28;20421;-72
2022/06/15 08:49:48;;;;;;;5.33;2.13;;;21.20;1.00;;;21.81;38.24;101514.66;4983138;28;20441;-73
2022/06/15 08:52:24;;;;;;;4.77;2.70;;;21.50;1.00;;;21.59;38.67;101511.16;4994275;28;20447;-73
2022/06/15 08:55:04;;;;;;;2.53;1.73;;;21.40;1.00;;;21.89;38.81;101510.56;4995314;28;20451;-73
2022/06/15 08:57:48;;;;;;;5.80;3.70;;;21.50;1.00;;;22.02;37.95;101504.69;4990385;28;20448;-73
2022/06/15 09:00:24;;;;;;;3.20;2.10;;;21.70;1.00;;;21.86;38.78;101503.69;4992547;28;20469;-74
2022/06/15 09:03:13;;;;;;;4.27;3.07;;;21.60;1.00;;;21.94;38.16;101497.72;4988694;28;20451;-73
2022/06/15 09:06:00;;;;;;;2.47;2.27;;;21.80;1.00;;;22.21;38.14;101502.34;4993719;28;20785;-72
2022/06/15 09:08:52;;;;;;;6.83;2.77;;;21.80;1.00;;;22.21;37.73;101508.69;5003468;28;20946;-73
2022/06/15 09:11:40;;;;;;;3.50;1.90;;;22.10;1.00;;;22.07;37.95;101507.47;4994140;28;20440;-71
2022/06/15 09:14:29;;;;;;;3.67;3.30;;;21.90;1.00;;;22.22;36.95;101506.75;5002273;28;20414;-71
2022/06/15 09:17:09;;;;;;;4.17;3.33;;;22.00;1.00;;;21.90;37.88;101502.06;5001142;28;20412;-72
2022/06/15 09:19:46;;;;;;;2.90;1.83;;;21.90;1.00;;;21.89;38.15;101505.91;5001077;28;20439;-73
2022/06/15 09:22:22;;;;;;;3.07;2.27;;;21.80;1.00;;;22.05;37.72;101504.13;4999383;28;20472;-72
2022/06/15 09:24:59;;;;;;;5.57;1.93;;;21.80;1.00;;;21.91;38.04;101502.91;4997817;28;20448;-72
2022/06/15 09:27:37;;;;;;;7.87;3.57;;;21.70;1.00;;;22.12;37.94;101503.94;4998884;28;20403;-72
2022/06/15 09:30:12;;;;;;;3.30;2.60;;;21.70;1.00;;;22.12;37.71;101499.25;5000615;28;20407;-73
2022/06/15 09:32:48;;;;;;;3.37;2.37;;;21.80;1.00;;;21.87;37.96;101497.09;4994388;28;21004;-72
2022/06/15 09:35:27;;;;;;;3.10;2.00;;;21.70;1.00;;;22.06;38.17;101492.03;4997029;28;20463;-71
2022/06/15 09:38:00;;;;;;;4.40;2.10;;;21.80;1.00;;;22.09;38.32;101499.75;4996014;28;20948;-72
2022/06/15 09:40:42;;;;;;;3.30;2.17;;;21.90;1.00;;;21.71;38.31;101497.19;5005126;28;20480;-72
2022/06/15 09:43:23;;;;;;;3.80;1.97;;;21.80;1.00;;;21.64;38.56;101497.41;5002338;28;20428;-74
2022/06/15 09:46:04;;;;;;;3.20;1.97;;;21.60;1.00;;;21.77;38.57;101493.41;5012081;28;20431;-72
2022/06/15 09:48:51;;;;;;;3.70;2.00;;;21.60;1.00;;;21.90;37.78;101496.53;5013004;28;20985;-73
2022/06/15 09:51:31;;;;;;;4.37;2.53;;;21.70;1.00;;;22.17;37.58;101488.25;5000237;28;20835;-72
2022/06/15 09:54:20;;;;;;;3.83;2.30;;;21.80;1.00;;;22.71;36.90;101490.78;5017650;28;20448;-73
2022/06/15 09:56:51;;;;;;;4.40;1.50;;;22.20;1.00;;;23.02;36.79;101489.84;5018159;28;20419;-73
2022/06/15 09:59:24;;;;;;;4.47;2.10;;;22.50;1.00;;;22.93;36.68;101488.72;5016495;28;20471;-71
2022/06/15 10:01:54;;;;;;;2.80;2.00;;;22.70;1.00;;;22.83;36.11;101488.66;5021344;28;20474;-73
2022/06/15 10:04:27;;;;;;;3.03;2.50;;;22.70;1.00;;;22.80;36.48;101484.50;5021348;28;20410;-72
2022/06/15 10:07:19;;;;;;;4.30;2.60;;;22.70;1.00;;;22.78;36.13;101492.22;5017974;28;20440;-71
2022/06/15 10:09:58;;;;;;;2.67;2.33;;;22.70;1.00;;;22.48;37.38;101489.28;5019847;28;20415;-72
2022/06/15 10:12:57;;;;;;;2.30;1.90;;;22.40;1.00;;;22.03;37.49;101492.53;5024697;28;20434;-72
2022/06/15 10:15:49;;;;;;;4.23;2.50;;;22.10;1.00;;;22.39;37.31;101482.59;5004093;28;20423;-76
2022/06/15 10:18:27;;;;;;;4.83;2.60;;;22.20;1.00;;;22.63;36.76;101475.56;5002628;28;20444;-73
2022/06/15 10:21:06;;;;;;;5.10;2.30;;;22.40;1.00;;;22.82;36.35;101473.19;5025623;28;20493;-72
2022/06/15 10:23:55;;;;;;;7.87;2.90;;;22.60;1.00;;;22.38;36.90;101469.91;5017165;28;20510;-74
2022/06/15 10:26:40;;;;;;;3.77;2.20;;;22.40;1.00;;;22.22;37.88;101466.22;5026032;28;20415;-74
2022/06/15 10:29:32;;;;;;;2.63;2.40;;;22.20;1.00;;;22.29;37.71;101475.09;5015459;28;20472;-74
2022/06/15 10:32:19;;;;;;;3.07;2.50;;;22.10;1.00;;;22.73;36.80;101464.63;5017668;28;21030;-74
2022/06/15 10:34:58;;;;;;;4.10;2.33;;;22.30;1.00;;;23.19;36.34;101456.50;5022718;28;20942;-72
2022/06/15 10:37:33;;;;;;;4.97;2.30;;;22.70;1.00;;;23.47;36.12;101464.31;5018376;28;20886;-74
2022/06/15 10:40:21;;;;;;;2.20;1.90;;;23.00;1.00;;;23.55;35.58;101454.66;5015711;28;20563;-75
2022/06/15 10:42:56;;;;;;;3.40;2.50;;;23.20;1.00;;;23.50;35.70;101457.41;5007917;28;20446;-76
2022/06/15 10:45:32;;;;;;;3.50;2.67;;;23.30;1.00;;;23.71;35.42;101451.63;5014800;28;20452;-75
2022/06/15 10:48:07;;;;;;;4.40;2.43;;;23.50;1.00;;;23.63;35.40;101456.84;5008532;28;20448;-75
2022/06/15 10:50:47;;;;;;;3.50;2.20;;;23.40;1.00;;;23.42;35.91;101452.41;5015030;28;20436;-74
2022/06/15 10:53:42;;;;;;;2.93;2.10;;;23.30;1.00;;;23.71;35.28;101454.38;5015391;28;20442;-77
2022/06/15 11:02:29;;;;;;;3.27;2.07;;;23.60;1.00;;;24.28;35.10;101449.66;5017935;28;20460;-75
2022/06/15 11:05:04;;;;;;;4.60;2.17;;;23.80;1.00;;;23.77;34.98;101442.22;5009061;28;20943;-76
2022/06/15 11:07:42;;;;;;;12.70;2.70;;;23.80;1.00;;;23.80;34.95;101438.91;5013240;28;20944;-76